Time;durP1;ratioP1;P1;durP2;ratioP2;P2;SDS_P1;SDS_P2;PMS_P1;PMS_P2;Temp;Humidity;BMP_temperature;BMP_pressure;BME280_temperature;BME280_humidity;BME280_pressure;Samples;Min_cycle;Max_cycle;Signal;HPM_P1;HPM_P2
2021/05/03 00:00:44;;;;;;;6.03;5.10;;;;;;;;;;5060942;28;20202;-70
2021/05/03 00:03:09;;;;;;;7.80;6.13;;;;;;;;;;5061886;28;20169;-69
2021/05/03 00:05:34;;;;;;;6.50;5.30;;;;;;;;;;5057339;28;20304;-69
2021/05/03 00:07:59;;;;;;;6.53;5.33;;;;;;;;;;5059321;28;20383;-69
2021/05/03 00:10:25;;;;;;;6.07;5.47;;;;;;;;;;5054563;28;20260;-69
2021/05/03 00:12:50;;;;;;;8.57;5.90;;;;;;;;;;5062408;28;20203;-69
2021/05/03 00:15:16;;;;;;;10.07;6.77;;;;;;;;;;5065130;28;20181;-68
2021/05/03 00:17:41;;;;;;;9.47;5.90;;;;;;;;;;5063688;28;20589;-70
2021/05/03 00:20:07;;;;;;;10.23;6.53;;;;;;;;;;5062019;28;20205;-69
2021/05/03 00:22:32;;;;;;;9.10;5.93;;;;;;;;;;5058452;28;20247;-69
2021/05/03 00:24:58;;;;;;;7.47;6.10;;;;;;;;;;5064946;28;20176;-69
2021/05/03 00:27:23;;;;;;;6.07;5.40;;;;;;;;;;5059669;28;20177;-69
2021/05/03 00:29:48;;;;;;;7.83;5.67;;;;;;;;;;5053987;28;20302;-69
2021/05/03 00:32:13;;;;;;;8.23;5.87;;;;;;;;;;5062945;28;20223;-69
2021/05/03 00:34:39;;;;;;;9.10;6.47;;;;;;;;;;5057774;28;20217;-69
2021/05/03 00:37:04;;;;;;;8.80;6.07;;;;;;;;;;5063347;28;20708;-69
2021/05/03 00:39:29;;;;;;;8.30;5.80;;;;;;;;;;5054727;28;20214;-70
2021/05/03 00:41:54;;;;;;;7.87;6.17;;;;;;;;;;5056637;28;20231;-70
2021/05/03 00:44:22;;;;;;;6.17;5.57;;;;;;;;;;5061923;28;20256;-70
2021/05/03 00:46:47;;;;;;;7.37;6.20;;;;;;;;;;5058129;28;20197;-68
2021/05/03 00:49:12;;;;;;;7.83;6.47;;;;;;;;;;5056764;28;20674;-70
2021/05/03 00:51:37;;;;;;;9.80;6.57;;;;;;;;;;5062499;28;20233;-69
2021/05/03 00:54:03;;;;;;;7.90;6.77;;;;;;;;;;5054088;28;20181;-69
2021/05/03 00:56:28;;;;;;;12.33;7.50;;;;;;;;;;5062864;28;20185;-69
2021/05/03 00:58:53;;;;;;;8.13;6.50;;;;;;;;;;5064496;28;20258;-69
2021/05/03 01:01:18;;;;;;;6.23;5.60;;;;;;;;;;5063701;28;20189;-70
2021/05/03 01:03:43;;;;;;;9.20;6.90;;;;;;;;;;5063165;28;20166;-69
2021/05/03 01:06:09;;;;;;;8.23;6.93;;;;;;;;;;5051761;28;20567;-68
2021/05/03 01:08:34;;;;;;;12.23;7.60;;;;;;;;;;5062101;28;20174;-70
2021/05/03 01:11:00;;;;;;;7.97;7.10;;;;;;;;;;5059850;28;20757;-68
2021/05/03 01:13:25;;;;;;;11.13;7.97;;;;;;;;;;5064200;28;20168;-70
2021/05/03 01:15:50;;;;;;;9.37;7.40;;;;;;;;;;5059291;28;20628;-70
2021/05/03 01:18:15;;;;;;;10.97;7.10;;;;;;;;;;5060980;28;20642;-70
2021/05/03 01:20:41;;;;;;;10.30;7.70;;;;;;;;;;5062956;28;20325;-70
2021/05/03 01:23:06;;;;;;;9.97;7.30;;;;;;;;;;5053267;28;20169;-70
2021/05/03 01:25:33;;;;;;;8.73;7.07;;;;;;;;;;5051290;28;20805;-69
2021/05/03 01:27:59;;;;;;;10.67;7.50;;;;;;;;;;5062183;28;20243;-69
2021/05/03 01:30:31;;;;;;;9.83;7.77;;;;;;;;;;5055723;28;20601;-69
2021/05/03 01:32:57;;;;;;;9.60;7.17;;;;;;;;;;5057710;28;20235;-68
2021/05/03 01:35:22;;;;;;;9.77;7.00;;;;;;;;;;5059698;28;20216;-70
2021/05/03 01:37:54;;;;;;;8.77;7.30;;;;;;;;;;5063476;28;20196;-69
2021/05/03 01:40:21;;;;;;;10.57;7.93;;;;;;;;;;5054712;28;20582;-70
2021/05/03 01:42:47;;;;;;;10.73;7.63;;;;;;;;;;5054066;28;20201;-70
2021/05/03 01:45:13;;;;;;;12.63;8.07;;;;;;;;;;5062715;28;20234;-70
2021/05/03 01:47:39;;;;;;;10.33;7.83;;;;;;;;;;5058375;28;20178;-70
2021/05/03 01:50:05;;;;;;;10.03;8.23;;;;;;;;;;5064166;28;20260;-68
2021/05/03 01:52:30;;;;;;;10.07;8.60;;;;;;;;;;5057289;28;20209;-70
2021/05/03 01:54:56;;;;;;;9.63;8.00;;;;;;;;;;5056971;28;20226;-70
2021/05/03 01:57:21;;;;;;;12.93;8.30;;;;;;;;;;5058547;28;20568;-70
2021/05/03 01:59:49;;;;;;;10.93;9.10;;;;;;;;;;5054309;28;20293;-69
2021/05/03 02:02:14;;;;;;;13.10;9.83;;;;;;;;;;5062959;28;20201;-69
2021/05/03 02:04:39;;;;;;;11.03;9.13;;;;;;;;;;5061228;28;20195;-70
2021/05/03 02:07:05;;;;;;;10.43;8.23;;;;;;;;;;5054714;28;20177;-69
2021/05/03 02:09:30;;;;;;;11.97;9.17;;;;;;;;;;5060028;28;20180;-69
2021/05/03 02:11:55;;;;;;;12.60;11.03;;;;;;;;;;5059720;28;20201;-70
2021/05/03 02:14:20;;;;;;;13.97;9.93;;;;;;;;;;5060639;28;20185;-69
2021/05/03 02:16:45;;;;;;;13.60;10.00;;;;;;;;;;5063215;28;20226;-68
2021/05/03 02:19:11;;;;;;;13.03;9.77;;;;;;;;;;5063856;28;20566;-70
2021/05/03 02:21:36;;;;;;;12.50;9.53;;;;;;;;;;5060281;28;20276;-69
2021/05/03 02:24:02;;;;;;;15.07;10.10;;;;;;;;;;5058766;28;20226;-70
2021/05/03 02:26:27;;;;;;;14.03;10.80;;;;;;;;;;5060802;28;20728;-70
2021/05/03 02:28:52;;;;;;;11.90;10.63;;;;;;;;;;5061410;28;20612;-70
2021/05/03 02:31:18;;;;;;;12.97;10.13;;;;;;;;;;5066212;28;20200;-68
2021/05/03 02:33:43;;;;;;;13.97;11.60;;;;;;;;;;5068837;28;20673;-70
2021/05/03 02:36:08;;;;;;;13.93;11.10;;;;;;;;;;5066244;28;20196;-70
2021/05/03 02:38:34;;;;;;;15.57;11.43;;;;;;;;;;5062524;28;20181;-70
2021/05/03 02:40:59;;;;;;;12.27;10.63;;;;;;;;;;5062584;28;20223;-70
2021/05/03 02:43:24;;;;;;;13.73;11.37;;;;;;;;;;5064617;28;20165;-70
2021/05/03 02:45:49;;;;;;;15.50;11.23;;;;;;;;;;5067635;28;20181;-70
2021/05/03 02:48:15;;;;;;;14.20;10.70;;;;;;;;;;5062579;28;21149;-70
2021/05/03 02:50:40;;;;;;;15.10;10.57;;;;;;;;;;5066871;28;20228;-70
2021/05/03 02:53:05;;;;;;;14.77;12.37;;;;;;;;;;5067760;28;20236;-70
2021/05/03 02:55:30;;;;;;;14.80;11.33;;;;;;;;;;5064575;28;20545;-70
2021/05/03 02:57:56;;;;;;;14.60;12.17;;;;;;;;;;5072717;28;20173;-70
2021/05/03 03:00:24;;;;;;;16.27;13.47;;;;;;;;;;5059848;28;20244;-71
2021/05/03 03:02:49;;;;;;;14.77;12.07;;;;;;;;;;5067902;28;20620;-69
2021/05/03 03:05:14;;;;;;;15.43;12.47;;;;;;;;;;5063048;28;20200;-70
2021/05/03 03:07:39;;;;;;;15.07;12.67;;;;;;;;;;5065702;28;20185;-69
2021/05/03 03:10:05;;;;;;;15.17;12.60;;;;;;;;;;5063958;28;20181;-69
2021/05/03 03:12:31;;;;;;;16.60;11.90;;;;;;;;;;5062189;28;20201;-70
2021/05/03 03:14:56;;;;;;;16.77;12.47;;;;;;;;;;5058102;28;20268;-70
2021/05/03 03:17:22;;;;;;;17.17;12.43;;;;;;;;;;5064557;28;20272;-70
2021/05/03 03:19:47;;;;;;;13.80;12.13;;;;;;;;;;5067170;28;20251;-70
2021/05/03 03:22:12;;;;;;;16.67;11.63;;;;;;;;;;5060323;28;20192;-70
2021/05/03 03:24:37;;;;;;;17.97;12.90;;;;;;;;;;5063289;28;20170;-70
2021/05/03 03:27:03;;;;;;;16.27;13.90;;;;;;;;;;5058673;28;20180;-69
2021/05/03 03:29:28;;;;;;;14.37;12.30;;;;;;;;;;5063311;28;20446;-70
2021/05/03 03:31:54;;;;;;;14.83;12.17;;;;;;;;;;5059234;28;20204;-70
2021/05/03 03:34:19;;;;;;;14.80;12.80;;;;;;;;;;5062598;28;20261;-68
2021/05/03 03:36:45;;;;;;;17.80;13.60;;;;;;;;;;5066069;28;20287;-70
2021/05/03 03:39:10;;;;;;;15.53;12.63;;;;;;;;;;5057801;28;20625;-70
2021/05/03 03:41:35;;;;;;;18.37;13.37;;;;;;;;;;5061628;28;20190;-68
2021/05/03 03:44:01;;;;;;;14.53;12.63;;;;;;;;;;5064385;28;20551;-69
2021/05/03 03:46:26;;;;;;;15.97;12.90;;;;;;;;;;5058212;28;20544;-71
2021/05/03 03:48:51;;;;;;;15.97;12.80;;;;;;;;;;5061417;28;20203;-70
2021/05/03 03:51:16;;;;;;;16.60;13.40;;;;;;;;;;5072208;28;20203;-69
2021/05/03 03:53:42;;;;;;;17.90;15.00;;;;;;;;;;5057359;28;20390;-70
2021/05/03 03:56:07;;;;;;;15.80;13.27;;;;;;;;;;5061042;28;20171;-70
2021/05/03 03:58:32;;;;;;;14.77;12.17;;;;;;;;;;5063484;28;20246;-70
2021/05/03 04:00:58;;;;;;;14.03;11.77;;;;;;;;;;5059060;28;20193;-70
2021/05/03 04:03:24;;;;;;;17.13;12.70;;;;;;;;;;5061129;28;20260;-70
2021/05/03 04:11:24;;;;;;;13.07;10.97;;;;;;;;;;5060441;28;20201;-69
2021/05/03 04:27:04;;;;;;;14.77;11.50;;;;;;;;;;5062885;28;20179;-70
2021/05/03 04:29:29;;;;;;;14.77;12.40;;;;;;;;;;5056726;28;20177;-70
2021/05/03 04:31:54;;;;;;;16.33;12.30;;;;;;;;;;5064221;28;20207;-70
2021/05/03 04:34:19;;;;;;;15.03;12.73;;;;;;;;;;5061523;28;20181;-70
2021/05/03 04:36:44;;;;;;;14.77;13.23;;;;;;;;;;5066270;28;20193;-69
2021/05/03 04:39:09;;;;;;;14.17;12.03;;;;;;;;;;5059521;28;20221;-70
2021/05/03 04:41:35;;;;;;;13.70;11.53;;;;;;;;;;5065398;28;20272;-70
2021/05/03 04:44:00;;;;;;;14.20;12.27;;;;;;;;;;5054558;28;20231;-70
2021/05/03 04:46:25;;;;;;;14.83;11.17;;;;;;;;;;5062154;28;20646;-70
2021/05/03 04:48:50;;;;;;;14.30;11.60;;;;;;;;;;5059880;28;20173;-70
2021/05/03 04:51:15;;;;;;;15.03;12.63;;;;;;;;;;5060026;28;20209;-70
2021/05/03 04:53:41;;;;;;;16.13;11.43;;;;;;;;;;5055982;28;20265;-69
2021/05/03 04:56:06;;;;;;;15.87;12.33;;;;;;;;;;5058195;28;20177;-70
2021/05/03 04:58:31;;;;;;;12.97;11.57;;;;;;;;;;5062449;28;20620;-70
2021/05/03 05:00:57;;;;;;;14.37;10.73;;;;;;;;;;5056678;28;20255;-70
2021/05/03 05:03:22;;;;;;;14.80;11.13;;;;;;;;;;5062916;28;20185;-70
2021/05/03 05:05:50;;;;;;;14.87;10.40;;;;;;;;;;5063387;28;20185;-70
2021/05/03 05:08:15;;;;;;;13.50;10.53;;;;;;;;;;5060184;28;20639;-69
2021/05/03 05:10:41;;;;;;;12.50;10.80;;;;;;;;;;5063603;28;20180;-70
2021/05/03 05:13:06;;;;;;;13.77;9.43;;;;;;;;;;5058787;28;20693;-70
2021/05/03 05:15:31;;;;;;;17.03;10.57;;;;;;;;;;5064724;28;20265;-70
2021/05/03 05:17:56;;;;;;;11.90;9.93;;;;;;;;;;5055137;28;20177;-70
2021/05/03 05:20:22;;;;;;;14.40;9.93;;;;;;;;;;5059824;28;20302;-69
2021/05/03 05:22:47;;;;;;;10.07;8.70;;;;;;;;;;5059936;28;20221;-69
2021/05/03 05:25:13;;;;;;;14.60;10.63;;;;;;;;;;5053236;28;20212;-70
2021/05/03 05:27:38;;;;;;;12.63;10.03;;;;;;;;;;5057382;28;20173;-70
2021/05/03 05:30:04;;;;;;;13.43;9.50;;;;;;;;;;5057791;28;20288;-69
2021/05/03 05:32:30;;;;;;;16.43;10.13;;;;;;;;;;5054525;28;20695;-70
2021/05/03 05:34:55;;;;;;;11.37;9.30;;;;;;;;;;5061591;28;20180;-69
2021/05/03 05:37:20;;;;;;;12.03;9.50;;;;;;;;;;5055238;28;20643;-69
2021/05/03 05:39:45;;;;;;;10.80;8.63;;;;;;;;;;5063836;28;20641;-70
2021/05/03 05:42:10;;;;;;;11.83;9.80;;;;;;;;;;5051142;28;20609;-69
2021/05/03 05:44:36;;;;;;;12.60;8.83;;;;;;;;;;5055721;28;20213;-69
2021/05/03 05:47:01;;;;;;;12.70;8.30;;;;;;;;;;5053113;28;20639;-70
2021/05/03 05:49:27;;;;;;;11.93;9.50;;;;;;;;;;5057870;28;20272;-70
2021/05/03 05:51:52;;;;;;;9.47;8.47;;;;;;;;;;5059540;28;20228;-69
2021/05/03 05:54:17;;;;;;;10.47;8.67;;;;;;;;;;5060665;28;20212;-69
2021/05/03 05:56:42;;;;;;;12.30;9.23;;;;;;;;;;5061027;28;20558;-69
2021/05/03 05:59:07;;;;;;;10.47;8.77;;;;;;;;;;5059354;28;20221;-68
2021/05/03 06:01:33;;;;;;;12.97;8.67;;;;;;;;;;5056008;28;20668;-70
2021/05/03 06:03:58;;;;;;;11.03;8.77;;;;;;;;;;5063092;28;20172;-70
2021/05/03 06:06:23;;;;;;;10.50;9.37;;;;;;;;;;5053257;28;20180;-69
2021/05/03 06:08:48;;;;;;;11.93;8.80;;;;;;;;;;5048366;28;20203;-68
2021/05/03 06:11:13;;;;;;;11.70;9.03;;;;;;;;;;5050973;28;20197;-69
2021/05/03 06:13:39;;;;;;;14.80;10.70;;;;;;;;;;5050045;28;20191;-70
2021/05/03 06:16:04;;;;;;;11.10;8.90;;;;;;;;;;5051535;28;20215;-70
2021/05/03 06:18:30;;;;;;;10.27;9.20;;;;;;;;;;5060021;28;20769;-70
2021/05/03 06:20:55;;;;;;;11.70;9.93;;;;;;;;;;5057924;28;20202;-70
2021/05/03 06:23:20;;;;;;;12.47;10.67;;;;;;;;;;5049752;28;20537;-68
2021/05/03 06:25:46;;;;;;;11.77;9.80;;;;;;;;;;5061596;28;20182;-70
2021/05/03 06:28:11;;;;;;;12.40;9.53;;;;;;;;;;5058757;28;20185;-70
2021/05/03 06:30:36;;;;;;;12.80;10.30;;;;;;;;;;5058817;28;20188;-70
2021/05/03 06:33:02;;;;;;;14.50;11.13;;;;;;;;;;5056112;28;20204;-70
2021/05/03 06:35:27;;;;;;;17.10;10.80;;;;;;;;;;5059788;28;20181;-70
2021/05/03 06:37:52;;;;;;;22.07;12.13;;;;;;;;;;5064314;28;20196;-70
2021/05/03 06:40:18;;;;;;;14.27;11.80;;;;;;;;;;5054693;28;20323;-69
2021/05/03 06:42:44;;;;;;;14.97;11.60;;;;;;;;;;5055850;28;20200;-70
2021/05/03 06:45:10;;;;;;;17.10;11.73;;;;;;;;;;5053775;28;20181;-69
2021/05/03 06:47:36;;;;;;;14.70;12.43;;;;;;;;;;5053877;28;20647;-70
2021/05/03 06:50:02;;;;;;;15.97;12.57;;;;;;;;;;5059720;28;20677;-70
2021/05/03 06:52:27;;;;;;;14.67;12.67;;;;;;;;;;5062553;28;20198;-69
2021/05/03 06:54:52;;;;;;;19.37;13.83;;;;;;;;;;5058076;28;20177;-69
2021/05/03 06:57:18;;;;;;;18.03;14.33;;;;;;;;;;5049994;28;20917;-69
2021/05/03 06:59:43;;;;;;;16.37;13.53;;;;;;;;;;5065582;28;20709;-70
2021/05/03 07:02:10;;;;;;;20.00;15.17;;;;;;;;;;5059241;28;20197;-70
2021/05/03 07:04:35;;;;;;;18.00;15.10;;;;;;;;;;5056468;28;20170;-70
2021/05/03 07:07:00;;;;;;;21.03;16.17;;;;;;;;;;5058281;28;20662;-70
2021/05/03 07:09:26;;;;;;;21.93;15.23;;;;;;;;;;5063274;28;20244;-69
2021/05/03 07:11:52;;;;;;;23.00;17.50;;;;;;;;;;5059172;28;20303;-70
2021/05/03 07:14:17;;;;;;;20.83;18.03;;;;;;;;;;5061260;28;20188;-70
2021/05/03 07:16:42;;;;;;;24.17;18.03;;;;;;;;;;5069752;28;20169;-70
2021/05/03 07:19:07;;;;;;;24.10;18.20;;;;;;;;;;5053145;28;20185;-70
2021/05/03 07:21:34;;;;;;;23.67;19.70;;;;;;;;;;5057964;28;20205;-69
2021/05/03 07:24:00;;;;;;;27.40;19.83;;;;;;;;;;5062439;28;20184;-69
2021/05/03 07:26:26;;;;;;;27.50;20.90;;;;;;;;;;5065071;28;20169;-70
2021/05/03 07:28:51;;;;;;;30.90;24.40;;;;;;;;;;5065974;28;20181;-68
2021/05/03 07:31:17;;;;;;;35.13;26.90;;;;;;;;;;5056877;28;20205;-70
2021/05/03 07:33:42;;;;;;;33.83;25.60;;;;;;;;;;5057947;28;20601;-68
2021/05/03 07:36:08;;;;;;;36.57;28.37;;;;;;;;;;5058362;28;20283;-70
2021/05/03 07:38:33;;;;;;;34.97;27.93;;;;;;;;;;5063074;28;20673;-71
2021/05/03 07:40:58;;;;;;;37.10;29.40;;;;;;;;;;5061982;28;20250;-70
2021/05/03 07:43:24;;;;;;;37.70;29.47;;;;;;;;;;5057180;28;20174;-71
2021/05/03 07:45:49;;;;;;;40.87;29.97;;;;;;;;;;5063058;28;20240;-69
2021/05/03 07:48:14;;;;;;;33.57;28.30;;;;;;;;;;5062381;28;20219;-71
2021/05/03 07:50:41;;;;;;;39.60;29.43;;;;;;;;;;5064436;28;20185;-70
2021/05/03 07:53:06;;;;;;;38.43;31.33;;;;;;;;;;5064212;28;20273;-70
2021/05/03 07:55:31;;;;;;;38.13;30.07;;;;;;;;;;5062022;28;20213;-70
2021/05/03 07:57:59;;;;;;;43.30;33.40;;;;;;;;;;5054572;28;20177;-70
2021/05/03 08:00:24;;;;;;;41.97;32.97;;;;;;;;;;5056410;28;20255;-70
2021/05/03 08:02:49;;;;;;;37.70;32.03;;;;;;;;;;5065907;28;20709;-70
2021/05/03 08:05:14;;;;;;;43.43;33.23;;;;;;;;;;5057614;28;20682;-70
2021/05/03 08:07:40;;;;;;;42.97;33.73;;;;;;;;;;5063006;28;20184;-70
2021/05/03 08:10:05;;;;;;;43.33;35.37;;;;;;;;;;5061505;28;20177;-70
2021/05/03 08:12:31;;;;;;;38.70;32.70;;;;;;;;;;5061218;28;20270;-68
2021/05/03 08:14:58;;;;;;;40.13;33.00;;;;;;;;;;5057592;28;20176;-70
2021/05/03 08:17:23;;;;;;;42.70;34.13;;;;;;;;;;5057374;28;20184;-70
2021/05/03 08:19:49;;;;;;;39.53;32.40;;;;;;;;;;5060798;28;20209;-71
2021/05/03 08:22:14;;;;;;;44.00;34.37;;;;;;;;;;5060491;28;20196;-69
2021/05/03 08:24:39;;;;;;;41.70;33.47;;;;;;;;;;5057377;28;20177;-70
2021/05/03 08:27:05;;;;;;;37.23;31.37;;;;;;;;;;5056194;28;20556;-70
2021/05/03 08:29:31;;;;;;;39.60;32.50;;;;;;;;;;5066020;28;20583;-70
2021/05/03 08:31:56;;;;;;;37.40;31.90;;;;;;;;;;5061874;28;20204;-69
2021/05/03 08:34:22;;;;;;;39.30;32.17;;;;;;;;;;5055069;28;20182;-70
2021/05/03 08:36:49;;;;;;;43.72;34.08;;;;;;;;;;5058834;28;20197;-70
2021/05/03 08:39:14;;;;;;;35.80;29.48;;;;;;;;;;5056168;28;20181;-70
2021/05/03 08:41:40;;;;;;;35.40;29.00;;;;;;;;;;5062541;28;20255;-70
2021/05/03 08:44:05;;;;;;;34.45;30.75;;;;;;;;;;5061205;28;20257;-69
2021/05/03 08:46:32;;;;;;;33.45;29.25;;;;;;;;;;5056855;28;20181;-69
2021/05/03 08:51:38;;;;;;;33.53;29.35;;;;;;;;;;5060235;28;20621;-70
2021/05/03 08:54:31;;;;;;;34.50;28.80;;;;;;;;;;5060667;28;20208;-69
2021/05/03 08:56:49;;;;;;;31.85;27.52;;;;;;;;;;5065310;28;20225;-70
2021/05/03 08:59:14;;;;;;;30.77;27.48;;;;;;;;;;5061544;28;20204;-69
2021/05/03 09:01:47;;;;;;;29.90;26.45;;;;;;;;;;5058816;28;20288;-69
2021/05/03 09:04:13;;;;;;;30.02;26.80;;;;;;;;;;5061095;28;20200;-70
2021/05/03 09:06:38;;;;;;;31.73;28.25;;;;;;;;;;5070630;28;20532;-69
2021/05/03 09:09:07;;;;;;;37.25;29.92;;;;;;;;;;5055922;28;20177;-69
2021/05/03 09:11:33;;;;;;;32.58;29.08;;;;;;;;;;5060892;28;20274;-69
2021/05/03 09:14:12;;;;;;;32.25;28.83;;;;;;;;;;5060558;28;20562;-70
2021/05/03 09:16:45;;;;;;;30.77;27.38;;;;;;;;;;5059809;28;20268;-69
2021/05/03 09:19:11;;;;;;;31.15;27.75;;;;;;;;;;5056021;28;20181;-70
2021/05/03 09:21:37;;;;;;;29.10;25.65;;;;;;;;;;5061408;28;20201;-70
2021/05/03 09:24:04;;;;;;;28.33;25.33;;;;;;;;;;5064338;28;20231;-69
2021/05/03 09:26:33;;;;;;;28.80;25.70;;;;;;;;;;5059920;28;20172;-69
2021/05/03 09:28:58;;;;;;;30.25;27.02;;;;;;;;;;5057002;28;20207;-69
2021/05/03 09:31:23;;;;;;;30.98;26.80;;;;;;;;;;5054316;28;20230;-70
2021/05/03 09:33:50;;;;;;;30.20;27.00;;;;;;;;;;5059198;28;20300;-70
2021/05/03 09:36:17;;;;;;;26.83;23.92;;;;;;;;;;5060510;28;21028;-71
2021/05/03 09:38:43;;;;;;;29.58;24.42;;;;;;;;;;5062065;28;20189;-69
2021/05/03 09:41:18;;;;;;;28.00;23.48;;;;;;;;;;5061768;28;20213;-69
2021/05/03 09:43:45;;;;;;;27.05;23.23;;;;;;;;;;5058877;28;20611;-70
2021/05/03 09:46:29;;;;;;;31.05;24.05;;;;;;;;;;5058412;28;20681;-70
2021/05/03 09:48:54;;;;;;;22.90;20.50;;;;;;;;;;5059974;28;20203;-70
2021/05/03 09:51:29;;;;;;;25.75;21.40;;;;;;;;;;5063932;28;20193;-70
2021/05/03 09:54:02;;;;;;;22.95;20.55;;;;;;;;;;5057255;28;20185;-71
2021/05/03 09:56:43;;;;;;;24.85;22.20;;;;;;;;;;5058770;28;20189;-71
2021/05/03 09:59:23;;;;;;;24.95;21.45;;;;;;;;;;5055567;28;20197;-69
2021/05/03 10:02:00;;;;;;;23.90;21.58;;;;;;;;;;5051558;28;20189;-70
2021/05/03 10:04:26;;;;;;;22.88;20.23;;;;;;;;;;5059871;28;20222;-70
2021/05/03 10:06:51;;;;;;;23.17;19.75;;;;;;;;;;5058410;28;20173;-69
2021/05/03 10:09:16;;;;;;;22.63;20.23;;;;;;;;;;5065281;28;20200;-69
2021/05/03 10:11:41;;;;;;;25.13;20.73;;;;;;;;;;5060050;28;20441;-69
2021/05/03 10:14:06;;;;;;;24.02;21.35;;;;;;;;;;5059494;28;20180;-69
2021/05/03 10:16:32;;;;;;;24.02;21.52;;;;;;;;;;5058870;28;20181;-70
2021/05/03 10:18:57;;;;;;;20.95;18.90;;;;;;;;;;5056980;28;20209;-70
2021/05/03 10:21:22;;;;;;;22.45;20.10;;;;;;;;;;5057620;28;20462;-70
2021/05/03 10:23:48;;;;;;;21.73;19.40;;;;;;;;;;5055556;28;20646;-70
2021/05/03 10:26:13;;;;;;;19.65;17.58;;;;;;;;;;5056655;28;20433;-69
2021/05/03 10:28:49;;;;;;;20.40;17.98;;;;;;;;;;5055782;28;20181;-69
2021/05/03 10:31:14;;;;;;;19.30;17.13;;;;;;;;;;5058863;28;20200;-69
2021/05/03 10:33:39;;;;;;;18.93;16.87;;;;;;;;;;5057875;28;20670;-69
2021/05/03 10:36:06;;;;;;;20.85;18.63;;;;;;;;;;5055190;28;20471;-71
2021/05/03 10:38:31;;;;;;;19.40;16.42;;;;;;;;;;5057338;28;20441;-71
2021/05/03 10:40:58;;;;;;;18.83;16.80;;;;;;;;;;5056789;28;20198;-69
2021/05/03 10:43:27;;;;;;;16.30;14.70;;;;;;;;;;5067915;28;20180;-71
2021/05/03 10:48:33;;;;;;;17.10;15.25;;;;;;;;;;5059904;28;20208;-71
2021/05/03 10:50:59;;;;;;;15.35;13.68;;;;;;;;;;5059915;28;20209;-70
2021/05/03 10:53:32;;;;;;;17.42;15.65;;;;;;;;;;5065441;28;20572;-70
2021/05/03 10:55:57;;;;;;;17.13;15.43;;;;;;;;;;5067833;28;20276;-71
2021/05/03 10:58:23;;;;;;;16.80;14.98;;;;;;;;;;5068119;28;20213;-71
2021/05/03 11:00:58;;;;;;;15.68;14.00;;;;;;;;;;5065845;28;20541;-70
2021/05/03 11:03:42;;;;;;;17.58;15.77;;;;;;;;;;5064418;28;20212;-69
2021/05/03 11:06:07;;;;;;;17.98;16.08;;;;;;;;;;5065745;28;20184;-69
2021/05/03 11:08:33;;;;;;;15.23;13.45;;;;;;;;;;5066572;28;20174;-71
2021/05/03 11:11:05;;;;;;;14.27;12.35;;;;;;;;;;5056940;28;20203;-72
2021/05/03 11:13:36;;;;;;;16.70;15.00;;;;;;;;;;5060408;28;20291;-70
2021/05/03 11:16:20;;;;;;;15.60;14.00;;;;;;;;;;5058407;28;20189;-69
2021/05/03 11:18:45;;;;;;;14.88;13.27;;;;;;;;;;5055387;28;20181;-69
2021/05/03 11:21:15;;;;;;;17.50;15.20;;;;;;;;;;5054509;28;20213;-69
2021/05/03 11:23:41;;;;;;;18.42;16.05;;;;;;;;;;5061701;28;20965;-68
2021/05/03 11:26:21;;;;;;;15.43;13.93;;;;;;;;;;5061240;28;20173;-70
2021/05/03 11:28:46;;;;;;;15.32;13.73;;;;;;;;;;5055460;28;20288;-68
2021/05/03 11:31:16;;;;;;;14.10;12.75;;;;;;;;;;5056483;28;20276;-68
2021/05/03 11:33:45;;;;;;;14.27;12.90;;;;;;;;;;5062887;28;20173;-69
2021/05/03 11:36:29;;;;;;;17.52;14.73;;;;;;;;;;5060159;28;20192;-69
2021/05/03 11:38:59;;;;;;;14.57;13.07;;;;;;;;;;5055919;28;20231;-72
2021/05/03 11:46:35;;;;;;;15.02;13.60;;;;;;;;;;5061088;28;20237;-69
2021/05/03 11:49:00;;;;;;;15.15;13.55;;;;;;;;;;5061652;28;20185;-69
2021/05/03 11:51:26;;;;;;;14.25;12.85;;;;;;;;;;5060478;28;20192;-67
2021/05/03 11:53:52;;;;;;;15.65;14.02;;;;;;;;;;5064350;28;20185;-68
2021/05/03 11:56:17;;;;;;;16.95;15.38;;;;;;;;;;5060650;28;20174;-69
2021/05/03 11:58:46;;;;;;;18.00;16.20;;;;;;;;;;5059373;28;20178;-69
2021/05/03 12:01:19;;;;;;;21.77;15.68;;;;;;;;;;5065765;28;20208;-69
2021/05/03 12:03:45;;;;;;;16.92;15.27;;;;;;;;;;5059646;28;20640;-69
2021/05/03 12:06:29;;;;;;;18.50;16.67;;;;;;;;;;5061127;28;20250;-69
2021/05/03 12:08:58;;;;;;;19.08;17.20;;;;;;;;;;5055411;28;20238;-69
2021/05/03 12:11:23;;;;;;;17.73;15.93;;;;;;;;;;5055681;28;20192;-69
2021/05/03 12:13:50;;;;;;;15.97;14.23;;;;;;;;;;5062691;28;20263;-70
2021/05/03 12:16:29;;;;;;;14.93;13.52;;;;;;;;;;5058766;28;20433;-69
2021/05/03 12:18:55;;;;;;;13.30;12.00;;;;;;;;;;5064415;28;20295;-68
2021/05/03 12:21:20;;;;;;;11.05;10.05;;;;;;;;;;5059305;28;20574;-71
2021/05/03 12:23:45;;;;;;;13.25;11.95;;;;;;;;;;5058374;28;20161;-69
2021/05/03 12:26:11;;;;;;;14.38;12.90;;;;;;;;;;5059671;28;20185;-69
2021/05/03 12:28:36;;;;;;;12.48;11.05;;;;;;;;;;5057202;28;20670;-70
2021/05/03 12:31:01;;;;;;;12.73;11.27;;;;;;;;;;5057036;28;20503;-70
2021/05/03 12:33:27;;;;;;;13.60;12.30;;;;;;;;;;5065677;28;20180;-70
2021/05/03 12:35:54;;;;;;;13.88;12.48;;;;;;;;;;5062923;28;20610;-71
2021/05/03 12:38:22;;;;;;;13.82;11.60;;;;;;;;;;5064994;28;20181;-69
2021/05/03 12:40:47;;;;;;;12.88;11.57;;;;;;;;;;5062928;28;20658;-70
2021/05/03 12:43:13;;;;;;;14.55;13.15;;;;;;;;;;5066400;28;20265;-68
2021/05/03 12:46:09;;;;;;;14.25;12.63;;;;;;;;;;5062370;28;20174;-70
2021/05/03 12:51:11;;;;;;;14.20;12.65;;;;;;;;;;5053472;28;20555;-69
2021/05/03 12:53:56;;;;;;;12.98;11.55;;;;;;;;;;5058956;28;20238;-69
2021/05/03 12:59:40;;;;;;;13.48;12.07;;;;;;;;;;5064141;28;20607;-70
2021/05/03 13:04:35;;;;;;;13.15;11.93;;;;;;;;;;5058272;28;20177;-68
2021/05/03 13:29:00;;;;;;;12.57;11.23;;;;;;;;;;5066280;28;20181;-70
2021/05/03 13:31:26;;;;;;;13.00;11.70;;;;;;;;;;5056322;28;20682;-69
2021/05/03 13:33:51;;;;;;;13.68;10.60;;;;;;;;;;5062922;28;20188;-69
2021/05/03 13:36:16;;;;;;;12.63;11.37;;;;;;;;;;5066811;28;20188;-71
2021/05/03 13:38:41;;;;;;;12.05;10.95;;;;;;;;;;5064272;28;20476;-70
2021/05/03 13:41:06;;;;;;;12.73;11.43;;;;;;;;;;5054357;28;20235;-69
2021/05/03 13:43:32;;;;;;;13.63;11.73;;;;;;;;;;5053285;28;20466;-68
2021/05/03 13:45:57;;;;;;;12.33;11.13;;;;;;;;;;5059331;28;20188;-69
2021/05/03 13:48:22;;;;;;;11.67;10.53;;;;;;;;;;5059017;28;20850;-70
2021/05/03 13:50:48;;;;;;;10.52;9.43;;;;;;;;;;5054945;28;20501;-69
2021/05/03 13:53:13;;;;;;;10.60;9.63;;;;;;;;;;5060305;28;20268;-70
2021/05/03 13:55:40;;;;;;;11.05;10.05;;;;;;;;;;5058071;28;20199;-70
2021/05/03 13:58:05;;;;;;;11.10;10.00;;;;;;;;;;5061773;28;20433;-69
2021/05/03 14:00:30;;;;;;;10.88;9.80;;;;;;;;;;5056571;28;20209;-70
2021/05/03 14:02:55;;;;;;;10.88;9.75;;;;;;;;;;5056409;28;20461;-70
2021/05/03 14:05:21;;;;;;;9.77;8.73;;;;;;;;;;5063287;28;20231;-70
2021/05/03 14:07:46;;;;;;;9.57;8.68;;;;;;;;;;5059807;28;20177;-70
2021/05/03 14:10:12;;;;;;;10.65;9.68;;;;;;;;;;5059663;28;20181;-70
2021/05/03 14:12:37;;;;;;;10.50;9.50;;;;;;;;;;5065190;28;20201;-70
2021/05/03 14:15:03;;;;;;;11.53;9.30;;;;;;;;;;5059836;28;20666;-69
2021/05/03 14:17:28;;;;;;;9.98;8.98;;;;;;;;;;5054831;28;20496;-70
2021/05/03 14:19:53;;;;;;;10.33;9.33;;;;;;;;;;5054623;28;20201;-70
2021/05/03 14:22:19;;;;;;;9.95;8.80;;;;;;;;;;5051945;28;20650;-70
2021/05/03 14:24:44;;;;;;;9.95;9.05;;;;;;;;;;5062271;28;20518;-70
2021/05/03 14:27:09;;;;;;;11.30;10.20;;;;;;;;;;5053339;28;20373;-71
2021/05/03 14:29:40;;;;;;;10.63;9.52;;;;;;;;;;5052931;28;20169;-71
2021/05/03 14:32:13;;;;;;;12.57;11.27;;;;;;;;;;5061117;28;20307;-69
2021/05/03 14:34:39;;;;;;;10.70;9.60;;;;;;;;;;5061606;28;20200;-69
2021/05/03 14:37:04;;;;;;;11.90;10.70;;;;;;;;;;5063069;28;20278;-71
2021/05/03 14:39:29;;;;;;;11.68;10.57;;;;;;;;;;5057855;28;20238;-69
2021/05/03 14:41:55;;;;;;;12.52;10.68;;;;;;;;;;5062082;28;20578;-70
2021/05/03 14:44:21;;;;;;;13.13;11.63;;;;;;;;;;5055540;28;20702;-70
2021/05/03 14:46:51;;;;;;;11.68;10.57;;;;;;;;;;5056265;28;20170;-71
2021/05/03 14:52:06;;;;;;;14.32;11.10;;;;;;;;;;5056175;28;20204;-71
2021/05/03 14:54:39;;;;;;;15.80;12.25;;;;;;;;;;5054112;28;20623;-70
2021/05/03 14:57:05;;;;;;;12.05;10.85;;;;;;;;;;5054839;28;20567;-71
2021/05/03 14:59:31;;;;;;;12.00;10.25;;;;;;;;;;5054447;28;20193;-71
2021/05/03 15:01:57;;;;;;;12.13;10.98;;;;;;;;;;5052641;28;20577;-69
2021/05/03 15:04:22;;;;;;;12.25;10.23;;;;;;;;;;5056528;28;20173;-68
2021/05/03 15:06:50;;;;;;;11.05;9.90;;;;;;;;;;5050785;28;20181;-70
2021/05/03 15:09:27;;;;;;;10.93;9.82;;;;;;;;;;5053110;28;20170;-69
2021/05/03 15:11:54;;;;;;;10.82;9.80;;;;;;;;;;5051019;28;20480;-70
2021/05/03 15:15:06;;;;;;;11.43;9.27;;;;;;;;;;5055948;28;20213;-69
2021/05/03 15:17:28;;;;;;;9.82;8.80;;;;;;;;;;5060487;28;20192;-69
2021/05/03 15:20:07;;;;;;;9.38;8.45;;;;;;;;;;5052852;28;20201;-68
2021/05/03 15:22:33;;;;;;;9.45;8.55;;;;;;;;;;5053527;28;20688;-70